sensor_id;sensor_type;location;lat;lon;timestamp;temperature;humidity
37646;DHT22;23489;49.600;6.138;2023-08-21T00:01:31;20.40;99.90
37646;DHT22;23489;49.600;6.138;2023-08-21T00:03:56;20.40;99.90
37646;DHT22;23489;49.600;6.138;2023-08-21T00:06:22;20.40;99.90
37646;DHT22;23489;49.600;6.138;2023-08-21T00:08:47;20.40;99.90
37646;DHT22;23489;49.600;6.138;2023-08-21T00:11:13;20.40;99.90
37646;DHT22;23489;49.600;6.138;2023-08-21T00:13:38;20.30;99.90
37646;DHT22;23489;49.600;6.138;2023-08-21T00:16:04;20.40;99.90
37646;DHT22;23489;49.600;6.138;2023-08-21T00:18:30;20.40;99.90
37646;DHT22;23489;49.600;6.138;2023-08-21T00:20:55;20.30;99.90
37646;DHT22;23489;49.600;6.138;2023-08-21T00:23:21;20.40;99.90
37646;DHT22;23489;49.600;6.138;2023-08-21T00:25:47;20.40;99.90
37646;DHT22;23489;49.600;6.138;2023-08-21T00:28:13;20.30;99.90
37646;DHT22;23489;49.600;6.138;2023-08-21T00:30:39;20.30;99.90
37646;DHT22;23489;49.600;6.138;2023-08-21T00:33:05;20.30;99.90
37646;DHT22;23489;49.600;6.138;2023-08-21T00:35:31;20.20;99.90
37646;DHT22;23489;49.600;6.138;2023-08-21T00:37:57;20.20;99.90
37646;DHT22;23489;49.600;6.138;2023-08-21T00:40:22;20.10;99.90
37646;DHT22;23489;49.600;6.138;2023-08-21T00:42:48;20.10;99.90
37646;DHT22;23489;49.600;6.138;2023-08-21T00:45:14;20.10;99.90
37646;DHT22;23489;49.600;6.138;2023-08-21T00:47:40;20.10;99.90
37646;DHT22;23489;49.600;6.138;2023-08-21T00:50:07;20.00;99.90
37646;DHT22;23489;49.600;6.138;2023-08-21T00:52:35;20.00;99.90
37646;DHT22;23489;49.600;6.138;2023-08-21T00:55:01;20.00;99.90
37646;DHT22;23489;49.600;6.138;2023-08-21T00:57:28;19.90;99.90
37646;DHT22;23489;49.600;6.138;2023-08-21T00:59:54;19.90;99.90
37646;DHT22;23489;49.600;6.138;2023-08-21T01:02:19;19.90;99.90
37646;DHT22;23489;49.600;6.138;2023-08-21T01:04:45;19.90;99.90
37646;DHT22;23489;49.600;6.138;2023-08-21T01:07:13;19.90;99.90
37646;DHT22;23489;49.600;6.138;2023-08-21T01:09:56;19.90;99.90
37646;DHT22;23489;49.600;6.138;2023-08-21T01:12:37;19.90;99.90
37646;DHT22;23489;49.600;6.138;2023-08-21T01:15:07;19.90;99.90
37646;DHT22;23489;49.600;6.138;2023-08-21T01:17:39;20.00;99.90
37646;DHT22;23489;49.600;6.138;2023-08-21T01:20:07;20.00;99.90
37646;DHT22;23489;49.600;6.138;2023-08-21T01:22:39;20.00;99.90
37646;DHT22;23489;49.600;6.138;2023-08-21T01:25:06;20.00;99.90
37646;DHT22;23489;49.600;6.138;2023-08-21T01:27:32;20.00;99.90
37646;DHT22;23489;49.600;6.138;2023-08-21T01:29:59;20.00;99.90
37646;DHT22;23489;49.600;6.138;2023-08-21T01:32:48;20.00;99.90
37646;DHT22;23489;49.600;6.138;2023-08-21T01:35:18;20.00;99.90
37646;DHT22;23489;49.600;6.138;2023-08-21T01:37:44;20.10;99.90
37646;DHT22;23489;49.600;6.138;2023-08-21T01:40:10;20.10;99.90
37646;DHT22;23489;49.600;6.138;2023-08-21T01:42:38;20.10;99.90
37646;DHT22;23489;49.600;6.138;2023-08-21T01:45:04;20.10;99.90
37646;DHT22;23489;49.600;6.138;2023-08-21T01:47:29;20.10;99.90
37646;DHT22;23489;49.600;6.138;2023-08-21T01:49:55;20.10;99.90
37646;DHT22;23489;49.600;6.138;2023-08-21T01:52:20;20.10;99.90
37646;DHT22;23489;49.600;6.138;2023-08-21T01:54:49;20.10;99.90
37646;DHT22;23489;49.600;6.138;2023-08-21T01:57:14;20.20;99.90
37646;DHT22;23489;49.600;6.138;2023-08-21T01:59:40;20.20;99.90
37646;DHT22;23489;49.600;6.138;2023-08-21T02:02:06;20.20;99.90
37646;DHT22;23489;49.600;6.138;2023-08-21T02:04:31;20.20;99.90
37646;DHT22;23489;49.600;6.138;2023-08-21T02:06:58;20.10;99.90
37646;DHT22;23489;49.600;6.138;2023-08-21T02:09:24;20.10;99.90
37646;DHT22;23489;49.600;6.138;2023-08-21T02:11:49;20.10;99.90
37646;DHT22;23489;49.600;6.138;2023-08-21T02:14:15;20.10;99.90
37646;DHT22;23489;49.600;6.138;2023-08-21T02:16:40;20.10;99.90
37646;DHT22;23489;49.600;6.138;2023-08-21T02:19:06;20.10;99.90
37646;DHT22;23489;49.600;6.138;2023-08-21T02:21:34;20.10;99.90
37646;DHT22;23489;49.600;6.138;2023-08-21T02:24:02;20.00;99.90
37646;DHT22;23489;49.600;6.138;2023-08-21T02:26:27;19.90;99.90
37646;DHT22;23489;49.600;6.138;2023-08-21T02:28:53;19.90;99.90
37646;DHT22;23489;49.600;6.138;2023-08-21T02:31:18;19.80;99.90
37646;DHT22;23489;49.600;6.138;2023-08-21T02:33:44;19.70;99.90
37646;DHT22;23489;49.600;6.138;2023-08-21T02:36:11;19.70;99.90
37646;DHT22;23489;49.600;6.138;2023-08-21T02:38:37;19.70;99.90
37646;DHT22;23489;49.600;6.138;2023-08-21T02:41:03;19.70;99.90
37646;DHT22;23489;49.600;6.138;2023-08-21T02:43:29;19.80;99.90
37646;DHT22;23489;49.600;6.138;2023-08-21T02:45:54;19.80;99.90
37646;DHT22;23489;49.600;6.138;2023-08-21T02:48:20;19.80;99.90
37646;DHT22;23489;49.600;6.138;2023-08-21T02:50:45;19.80;99.90
37646;DHT22;23489;49.600;6.138;2023-08-21T02:53:11;19.80;99.90
37646;DHT22;23489;49.600;6.138;2023-08-21T02:55:37;19.80;99.90
37646;DHT22;23489;49.600;6.138;2023-08-21T02:58:02;19.90;99.90
37646;DHT22;23489;49.600;6.138;2023-08-21T03:00:28;19.90;99.90
37646;DHT22;23489;49.600;6.138;2023-08-21T03:02:53;19.90;99.90
37646;DHT22;23489;49.600;6.138;2023-08-21T03:05:20;19.90;99.90
37646;DHT22;23489;49.600;6.138;2023-08-21T03:07:45;19.90;99.90
37646;DHT22;23489;49.600;6.138;2023-08-21T03:10:11;19.90;99.90
37646;DHT22;23489;49.600;6.138;2023-08-21T03:12:36;19.90;99.90
37646;DHT22;23489;49.600;6.138;2023-08-21T03:15:03;19.80;99.90
37646;DHT22;23489;49.600;6.138;2023-08-21T03:17:28;19.90;99.90
37646;DHT22;23489;49.600;6.138;2023-08-21T03:19:54;19.90;99.90
37646;DHT22;23489;49.600;6.138;2023-08-21T03:22:21;19.90;99.90
37646;DHT22;23489;49.600;6.138;2023-08-21T03:24:47;19.90;99.90
37646;DHT22;23489;49.600;6.138;2023-08-21T03:27:15;19.90;99.90
37646;DHT22;23489;49.600;6.138;2023-08-21T03:29:40;19.80;99.90
37646;DHT22;23489;49.600;6.138;2023-08-21T03:32:06;19.90;99.90
37646;DHT22;23489;49.600;6.138;2023-08-21T03:34:32;19.90;99.90
37646;DHT22;23489;49.600;6.138;2023-08-21T03:37:00;19.80;99.90
37646;DHT22;23489;49.600;6.138;2023-08-21T03:39:29;19.90;99.90
37646;DHT22;23489;49.600;6.138;2023-08-21T03:41:55;19.80;99.90
37646;DHT22;23489;49.600;6.138;2023-08-21T03:44:23;19.90;99.90
37646;DHT22;23489;49.600;6.138;2023-08-21T03:46:48;19.90;99.90
37646;DHT22;23489;49.600;6.138;2023-08-21T03:49:14;19.80;99.90
37646;DHT22;23489;49.600;6.138;2023-08-21T03:51:39;19.80;99.90
37646;DHT22;23489;49.600;6.138;2023-08-21T03:54:05;19.70;99.90
37646;DHT22;23489;49.600;6.138;2023-08-21T03:56:31;19.70;99.90
37646;DHT22;23489;49.600;6.138;2023-08-21T03:58:56;19.60;99.90
37646;DHT22;23489;49.600;6.138;2023-08-21T04:01:22;19.60;99.90
37646;DHT22;23489;49.600;6.138;2023-08-21T04:03:47;19.60;99.90
37646;DHT22;23489;49.600;6.138;2023-08-21T04:06:13;19.60;99.90
37646;DHT22;23489;49.600;6.138;2023-08-21T04:08:39;19.60;99.90
37646;DHT22;23489;49.600;6.138;2023-08-21T04:11:06;19.60;99.90
37646;DHT22;23489;49.600;6.138;2023-08-21T04:13:31;19.60;99.90
37646;DHT22;23489;49.600;6.138;2023-08-21T04:15:57;19.60;99.90
37646;DHT22;23489;49.600;6.138;2023-08-21T04:18:23;19.50;99.90
37646;DHT22;23489;49.600;6.138;2023-08-21T04:20:49;19.60;99.90
37646;DHT22;23489;49.600;6.138;2023-08-21T04:23:15;19.60;99.90
37646;DHT22;23489;49.600;6.138;2023-08-21T04:25:40;19.60;99.90
37646;DHT22;23489;49.600;6.138;2023-08-21T04:28:06;19.60;99.90
37646;DHT22;23489;49.600;6.138;2023-08-21T04:30:33;19.60;99.90
37646;DHT22;23489;49.600;6.138;2023-08-21T04:32:59;19.60;99.90
37646;DHT22;23489;49.600;6.138;2023-08-21T04:35:25;19.70;99.90
37646;DHT22;23489;49.600;6.138;2023-08-21T04:37:51;19.70;99.90
37646;DHT22;23489;49.600;6.138;2023-08-21T04:40:19;19.70;99.90
37646;DHT22;23489;49.600;6.138;2023-08-21T04:42:46;19.70;99.90
37646;DHT22;23489;49.600;6.138;2023-08-21T04:45:13;19.70;99.90
37646;DHT22;23489;49.600;6.138;2023-08-21T04:47:39;19.70;99.90
37646;DHT22;23489;49.600;6.138;2023-08-21T04:50:05;19.80;99.90
37646;DHT22;23489;49.600;6.138;2023-08-21T04:52:32;19.80;99.90
37646;DHT22;23489;49.600;6.138;2023-08-21T04:54:58;19.70;99.90
37646;DHT22;23489;49.600;6.138;2023-08-21T04:57:26;19.80;99.90
37646;DHT22;23489;49.600;6.138;2023-08-21T04:59:52;19.80;99.90
37646;DHT22;23489;49.600;6.138;2023-08-21T05:02:19;19.80;99.90
37646;DHT22;23489;49.600;6.138;2023-08-21T05:04:45;19.80;99.90
37646;DHT22;23489;49.600;6.138;2023-08-21T05:07:10;19.80;99.90
37646;DHT22;23489;49.600;6.138;2023-08-21T05:09:36;19.80;99.90
37646;DHT22;23489;49.600;6.138;2023-08-21T05:12:02;19.90;99.90
37646;DHT22;23489;49.600;6.138;2023-08-21T05:14:28;20.00;99.90
37646;DHT22;23489;49.600;6.138;2023-08-21T05:16:55;20.00;99.90
37646;DHT22;23489;49.600;6.138;2023-08-21T05:19:20;20.00;99.90
37646;DHT22;23489;49.600;6.138;2023-08-21T05:21:46;20.10;99.90
37646;DHT22;23489;49.600;6.138;2023-08-21T05:24:12;20.10;99.90
37646;DHT22;23489;49.600;6.138;2023-08-21T05:26:42;20.10;99.90
37646;DHT22;23489;49.600;6.138;2023-08-21T05:29:09;20.20;99.90
37646;DHT22;23489;49.600;6.138;2023-08-21T05:31:34;20.30;99.90
37646;DHT22;23489;49.600;6.138;2023-08-21T05:34:00;20.40;99.90
37646;DHT22;23489;49.600;6.138;2023-08-21T05:36:26;20.50;99.90
37646;DHT22;23489;49.600;6.138;2023-08-21T05:38:52;20.60;99.90
37646;DHT22;23489;49.600;6.138;2023-08-21T05:41:18;20.70;99.90
37646;DHT22;23489;49.600;6.138;2023-08-21T05:43:44;20.80;99.90
37646;DHT22;23489;49.600;6.138;2023-08-21T05:46:11;20.90;99.90
37646;DHT22;23489;49.600;6.138;2023-08-21T05:48:37;20.90;99.90
37646;DHT22;23489;49.600;6.138;2023-08-21T05:51:03;21.00;99.90
37646;DHT22;23489;49.600;6.138;2023-08-21T05:53:28;21.10;99.90
37646;DHT22;23489;49.600;6.138;2023-08-21T05:55:54;21.20;99.90
37646;DHT22;23489;49.600;6.138;2023-08-21T05:58:20;21.30;99.90
37646;DHT22;23489;49.600;6.138;2023-08-21T06:00:46;21.40;99.90
37646;DHT22;23489;49.600;6.138;2023-08-21T06:03:13;21.40;99.90
37646;DHT22;23489;49.600;6.138;2023-08-21T06:05:55;21.50;99.90
37646;DHT22;23489;49.600;6.138;2023-08-21T06:08:21;21.50;99.90
37646;DHT22;23489;49.600;6.138;2023-08-21T06:10:51;21.50;99.90
37646;DHT22;23489;49.600;6.138;2023-08-21T06:13:17;21.50;99.90
37646;DHT22;23489;49.600;6.138;2023-08-21T06:15:44;21.50;99.90
37646;DHT22;23489;49.600;6.138;2023-08-21T06:18:14;21.60;99.90
37646;DHT22;23489;49.600;6.138;2023-08-21T06:20:42;21.70;99.90
37646;DHT22;23489;49.600;6.138;2023-08-21T06:23:08;21.70;99.90
37646;DHT22;23489;49.600;6.138;2023-08-21T06:25:34;21.90;99.90
37646;DHT22;23489;49.600;6.138;2023-08-21T06:28:00;22.10;99.90
37646;DHT22;23489;49.600;6.138;2023-08-21T06:30:26;22.30;99.90
37646;DHT22;23489;49.600;6.138;2023-08-21T06:32:52;22.70;99.90
37646;DHT22;23489;49.600;6.138;2023-08-21T06:35:18;23.00;99.90
37646;DHT22;23489;49.600;6.138;2023-08-21T06:37:44;23.30;99.90
37646;DHT22;23489;49.600;6.138;2023-08-21T06:40:10;23.40;99.90
37646;DHT22;23489;49.600;6.138;2023-08-21T06:42:36;23.80;99.90
37646;DHT22;23489;49.600;6.138;2023-08-21T06:45:04;24.20;99.90
37646;DHT22;23489;49.600;6.138;2023-08-21T06:47:30;24.30;99.90
37646;DHT22;23489;49.600;6.138;2023-08-21T06:49:55;24.80;99.90
37646;DHT22;23489;49.600;6.138;2023-08-21T06:52:21;26.10;99.90
37646;DHT22;23489;49.600;6.138;2023-08-21T06:54:47;27.50;99.90
37646;DHT22;23489;49.600;6.138;2023-08-21T06:57:12;28.70;99.90
37646;DHT22;23489;49.600;6.138;2023-08-21T06:59:38;29.50;99.90
37646;DHT22;23489;49.600;6.138;2023-08-21T07:02:03;29.90;99.90
37646;DHT22;23489;49.600;6.138;2023-08-21T07:04:29;31.00;99.90
37646;DHT22;23489;49.600;6.138;2023-08-21T07:06:55;31.70;99.90
37646;DHT22;23489;49.600;6.138;2023-08-21T07:09:20;32.40;99.90
37646;DHT22;23489;49.600;6.138;2023-08-21T07:11:46;33.20;99.90
37646;DHT22;23489;49.600;6.138;2023-08-21T07:14:11;34.10;99.90
37646;DHT22;23489;49.600;6.138;2023-08-21T07:16:39;34.50;99.90
37646;DHT22;23489;49.600;6.138;2023-08-21T07:19:04;34.90;99.30
37646;DHT22;23489;49.600;6.138;2023-08-21T07:21:30;34.60;99.40
37646;DHT22;23489;49.600;6.138;2023-08-21T07:23:56;34.60;98.60
37646;DHT22;23489;49.600;6.138;2023-08-21T07:26:21;34.90;98.70
37646;DHT22;23489;49.600;6.138;2023-08-21T07:28:47;35.50;97.50
37646;DHT22;23489;49.600;6.138;2023-08-21T07:31:12;35.90;96.10
37646;DHT22;23489;49.600;6.138;2023-08-21T07:33:38;36.50;94.70
37646;DHT22;23489;49.600;6.138;2023-08-21T07:36:04;37.10;93.00
37646;DHT22;23489;49.600;6.138;2023-08-21T07:38:30;37.70;92.10
37646;DHT22;23489;49.600;6.138;2023-08-21T07:41:03;39.20;90.10
37646;DHT22;23489;49.600;6.138;2023-08-21T07:43:28;38.70;89.60
37646;DHT22;23489;49.600;6.138;2023-08-21T07:45:54;39.70;85.30
37646;DHT22;23489;49.600;6.138;2023-08-21T07:48:19;38.70;85.70
37646;DHT22;23489;49.600;6.138;2023-08-21T07:50:51;39.30;84.00
37646;DHT22;23489;49.600;6.138;2023-08-21T07:53:17;39.50;82.90
37646;DHT22;23489;49.600;6.138;2023-08-21T07:55:43;39.50;81.00
37646;DHT22;23489;49.600;6.138;2023-08-21T07:58:08;38.30;82.60
37646;DHT22;23489;49.600;6.138;2023-08-21T08:00:35;39.30;81.60
37646;DHT22;23489;49.600;6.138;2023-08-21T08:03:00;40.80;78.50
37646;DHT22;23489;49.600;6.138;2023-08-21T08:05:26;42.20;73.30
37646;DHT22;23489;49.600;6.138;2023-08-21T08:07:51;42.10;71.20
37646;DHT22;23489;49.600;6.138;2023-08-21T08:10:17;43.10;69.60
37646;DHT22;23489;49.600;6.138;2023-08-21T08:12:42;43.50;67.60
37646;DHT22;23489;49.600;6.138;2023-08-21T08:15:09;43.60;65.80
37646;DHT22;23489;49.600;6.138;2023-08-21T08:17:35;43.50;64.50
37646;DHT22;23489;49.600;6.138;2023-08-21T08:20:01;39.60;70.70
37646;DHT22;23489;49.600;6.138;2023-08-21T08:22:26;39.00;72.80
37646;DHT22;23489;49.600;6.138;2023-08-21T08:24:52;39.10;71.90
37646;DHT22;23489;49.600;6.138;2023-08-21T08:27:17;37.60;75.30
37646;DHT22;23489;49.600;6.138;2023-08-21T08:29:43;37.70;75.50
37646;DHT22;23489;49.600;6.138;2023-08-21T08:32:08;39.00;72.80
37646;DHT22;23489;49.600;6.138;2023-08-21T08:34:34;40.40;70.30
37646;DHT22;23489;49.600;6.138;2023-08-21T08:36:59;39.80;71.20
37646;DHT22;23489;49.600;6.138;2023-08-21T08:39:24;40.60;69.80
37646;DHT22;23489;49.600;6.138;2023-08-21T08:42:02;41.90;67.10
37646;DHT22;23489;49.600;6.138;2023-08-21T08:44:29;42.60;65.00
37646;DHT22;23489;49.600;6.138;2023-08-21T08:46:54;40.90;67.10
37646;DHT22;23489;49.600;6.138;2023-08-21T08:49:21;39.60;69.50
37646;DHT22;23489;49.600;6.138;2023-08-21T08:51:47;39.00;70.70
37646;DHT22;23489;49.600;6.138;2023-08-21T08:54:14;41.00;67.20
37646;DHT22;23489;49.600;6.138;2023-08-21T08:56:41;39.70;69.40
37646;DHT22;23489;49.600;6.138;2023-08-21T08:59:07;40.20;69.20
37646;DHT22;23489;49.600;6.138;2023-08-21T09:01:33;41.90;65.80
37646;DHT22;23489;49.600;6.138;2023-08-21T09:03:58;42.40;64.80
37646;DHT22;23489;49.600;6.138;2023-08-21T09:06:24;42.70;64.00
37646;DHT22;23489;49.600;6.138;2023-08-21T09:08:54;39.50;68.20
37646;DHT22;23489;49.600;6.138;2023-08-21T09:11:20;41.40;65.40
37646;DHT22;23489;49.600;6.138;2023-08-21T09:13:48;42.50;63.40
37646;DHT22;23489;49.600;6.138;2023-08-21T09:16:14;43.50;61.30
37646;DHT22;23489;49.600;6.138;2023-08-21T09:18:53;40.90;64.80
37646;DHT22;23489;49.600;6.138;2023-08-21T09:21:20;39.90;66.80
37646;DHT22;23489;49.600;6.138;2023-08-21T09:23:46;40.20;65.70
37646;DHT22;23489;49.600;6.138;2023-08-21T09:26:20;40.20;65.20
37646;DHT22;23489;49.600;6.138;2023-08-21T09:28:46;41.20;64.70
37646;DHT22;23489;49.600;6.138;2023-08-21T09:31:13;41.10;64.00
37646;DHT22;23489;49.600;6.138;2023-08-21T09:33:38;42.20;62.70
37646;DHT22;23489;49.600;6.138;2023-08-21T09:36:04;41.50;63.50
37646;DHT22;23489;49.600;6.138;2023-08-21T09:38:30;41.20;64.60
37646;DHT22;23489;49.600;6.138;2023-08-21T09:40:56;39.20;66.10
37646;DHT22;23489;49.600;6.138;2023-08-21T09:43:22;39.60;65.90
37646;DHT22;23489;49.600;6.138;2023-08-21T09:45:50;40.50;66.40
37646;DHT22;23489;49.600;6.138;2023-08-21T09:48:24;39.40;66.70
37646;DHT22;23489;49.600;6.138;2023-08-21T09:50:53;38.40;68.60
37646;DHT22;23489;49.600;6.138;2023-08-21T09:53:20;39.20;67.80
37646;DHT22;23489;49.600;6.138;2023-08-21T09:55:49;39.30;66.70
37646;DHT22;23489;49.600;6.138;2023-08-21T09:58:19;40.30;66.00
37646;DHT22;23489;49.600;6.138;2023-08-21T10:00:45;42.10;63.70
37646;DHT22;23489;49.600;6.138;2023-08-21T10:03:11;43.30;61.60
37646;DHT22;23489;49.600;6.138;2023-08-21T10:05:38;41.80;63.30
37646;DHT22;23489;49.600;6.138;2023-08-21T10:08:07;41.50;63.20
37646;DHT22;23489;49.600;6.138;2023-08-21T10:10:34;40.20;65.40
37646;DHT22;23489;49.600;6.138;2023-08-21T10:13:00;40.90;64.60
37646;DHT22;23489;49.600;6.138;2023-08-21T10:15:30;41.20;63.40
37646;DHT22;23489;49.600;6.138;2023-08-21T10:17:56;40.30;65.00
37646;DHT22;23489;49.600;6.138;2023-08-21T10:20:23;40.20;65.30
37646;DHT22;23489;49.600;6.138;2023-08-21T10:22:54;40.00;66.40
37646;DHT22;23489;49.600;6.138;2023-08-21T10:25:22;40.50;66.00
37646;DHT22;23489;49.600;6.138;2023-08-21T10:27:58;41.00;64.40
37646;DHT22;23489;49.600;6.138;2023-08-21T10:30:27;40.20;65.40
37646;DHT22;23489;49.600;6.138;2023-08-21T10:32:58;38.40;68.50
37646;DHT22;23489;49.600;6.138;2023-08-21T10:35:28;37.70;70.40
37646;DHT22;23489;49.600;6.138;2023-08-21T10:38:15;38.10;69.40
37646;DHT22;23489;49.600;6.138;2023-08-21T10:41:04;39.00;68.20
37646;DHT22;23489;49.600;6.138;2023-08-21T10:46:03;38.10;67.50
37646;DHT22;23489;49.600;6.138;2023-08-21T10:48:28;37.30;69.10
37646;DHT22;23489;49.600;6.138;2023-08-21T10:50:54;37.30;69.10
37646;DHT22;23489;49.600;6.138;2023-08-21T10:53:20;35.90;70.60
37646;DHT22;23489;49.600;6.138;2023-08-21T10:55:53;34.90;72.60
37646;DHT22;23489;49.600;6.138;2023-08-21T10:58:19;35.70;72.60
37646;DHT22;23489;49.600;6.138;2023-08-21T11:00:45;36.90;70.30
37646;DHT22;23489;49.600;6.138;2023-08-21T11:03:10;37.50;68.90
37646;DHT22;23489;49.600;6.138;2023-08-21T11:05:36;36.70;69.40
37646;DHT22;23489;49.600;6.138;2023-08-21T11:08:02;35.60;71.90
37646;DHT22;23489;49.600;6.138;2023-08-21T11:10:30;34.80;73.60
37646;DHT22;23489;49.600;6.138;2023-08-21T11:12:58;34.00;75.40
37646;DHT22;23489;49.600;6.138;2023-08-21T11:15:28;33.60;76.80
37646;DHT22;23489;49.600;6.138;2023-08-21T11:17:58;33.30;77.60
37646;DHT22;23489;49.600;6.138;2023-08-21T11:20:43;33.20;78.20
37646;DHT22;23489;49.600;6.138;2023-08-21T11:23:08;32.90;79.70
37646;DHT22;23489;49.600;6.138;2023-08-21T11:25:38;32.10;81.90
37646;DHT22;23489;49.600;6.138;2023-08-21T11:28:04;32.10;81.20
37646;DHT22;23489;49.600;6.138;2023-08-21T11:30:34;32.50;81.10
37646;DHT22;23489;49.600;6.138;2023-08-21T11:33:13;32.60;80.80
37646;DHT22;23489;49.600;6.138;2023-08-21T11:35:40;32.80;80.20
37646;DHT22;23489;49.600;6.138;2023-08-21T11:38:06;32.00;80.70
37646;DHT22;23489;49.600;6.138;2023-08-21T11:40:35;31.90;81.10
37646;DHT22;23489;49.600;6.138;2023-08-21T11:43:02;32.10;80.80
37646;DHT22;23489;49.600;6.138;2023-08-21T11:45:29;31.80;81.00
37646;DHT22;23489;49.600;6.138;2023-08-21T11:47:58;30.60;83.40
37646;DHT22;23489;49.600;6.138;2023-08-21T11:50:23;30.40;82.90
37646;DHT22;23489;49.600;6.138;2023-08-21T11:52:54;30.30;81.80
37646;DHT22;23489;49.600;6.138;2023-08-21T11:55:20;30.40;82.20
37646;DHT22;23489;49.600;6.138;2023-08-21T11:57:48;30.70;82.10
37646;DHT22;23489;49.600;6.138;2023-08-21T12:00:15;31.10;81.90
37646;DHT22;23489;49.600;6.138;2023-08-21T12:02:53;30.90;82.20
37646;DHT22;23489;49.600;6.138;2023-08-21T12:05:20;31.10;81.70
37646;DHT22;23489;49.600;6.138;2023-08-21T12:07:45;31.30;80.30
37646;DHT22;23489;49.600;6.138;2023-08-21T12:10:11;31.20;78.50
37646;DHT22;23489;49.600;6.138;2023-08-21T12:12:36;31.40;78.80
37646;DHT22;23489;49.600;6.138;2023-08-21T12:15:02;31.50;78.80
37646;DHT22;23489;49.600;6.138;2023-08-21T12:17:28;31.10;78.20
37646;DHT22;23489;49.600;6.138;2023-08-21T12:19:54;31.00;78.10
37646;DHT22;23489;49.600;6.138;2023-08-21T12:22:19;31.00;80.00
37646;DHT22;23489;49.600;6.138;2023-08-21T12:24:45;30.70;81.60
37646;DHT22;23489;49.600;6.138;2023-08-21T12:27:10;30.70;80.70
37646;DHT22;23489;49.600;6.138;2023-08-21T12:29:36;31.10;80.20
37646;DHT22;23489;49.600;6.138;2023-08-21T12:32:02;30.90;79.70
37646;DHT22;23489;49.600;6.138;2023-08-21T12:34:28;30.70;80.00
37646;DHT22;23489;49.600;6.138;2023-08-21T12:36:54;31.00;79.80
37646;DHT22;23489;49.600;6.138;2023-08-21T12:39:20;31.10;78.90
37646;DHT22;23489;49.600;6.138;2023-08-21T12:41:47;31.20;77.90
37646;DHT22;23489;49.600;6.138;2023-08-21T12:44:14;31.10;76.70
37646;DHT22;23489;49.600;6.138;2023-08-21T12:46:39;31.30;74.90
37646;DHT22;23489;49.600;6.138;2023-08-21T12:49:05;31.20;74.80
37646;DHT22;23489;49.600;6.138;2023-08-21T12:51:30;31.40;75.80
37646;DHT22;23489;49.600;6.138;2023-08-21T12:53:56;30.80;76.20
37646;DHT22;23489;49.600;6.138;2023-08-21T12:56:22;30.50;77.40
37646;DHT22;23489;49.600;6.138;2023-08-21T12:58:48;30.10;78.80
37646;DHT22;23489;49.600;6.138;2023-08-21T13:01:13;30.10;78.70
37646;DHT22;23489;49.600;6.138;2023-08-21T13:03:46;29.90;78.60
37646;DHT22;23489;49.600;6.138;2023-08-21T13:06:13;30.20;79.40
37646;DHT22;23489;49.600;6.138;2023-08-21T13:08:38;30.30;79.10
37646;DHT22;23489;49.600;6.138;2023-08-21T13:11:04;29.90;77.80
37646;DHT22;23489;49.600;6.138;2023-08-21T13:13:31;30.00;77.40
37646;DHT22;23489;49.600;6.138;2023-08-21T13:15:56;29.90;76.20
37646;DHT22;23489;49.600;6.138;2023-08-21T13:18:22;29.90;76.00
37646;DHT22;23489;49.600;6.138;2023-08-21T13:20:48;29.80;76.40
37646;DHT22;23489;49.600;6.138;2023-08-21T13:23:13;29.90;76.50
37646;DHT22;23489;49.600;6.138;2023-08-21T13:25:39;30.20;77.10
37646;DHT22;23489;49.600;6.138;2023-08-21T13:28:05;30.50;76.80
37646;DHT22;23489;49.600;6.138;2023-08-21T13:30:30;30.60;75.10
37646;DHT22;23489;49.600;6.138;2023-08-21T13:32:59;30.60;75.40
37646;DHT22;23489;49.600;6.138;2023-08-21T13:35:24;30.80;75.40
37646;DHT22;23489;49.600;6.138;2023-08-21T13:37:50;30.70;76.30
37646;DHT22;23489;49.600;6.138;2023-08-21T13:40:16;30.60;76.30
37646;DHT22;23489;49.600;6.138;2023-08-21T13:42:43;30.30;76.10
37646;DHT22;23489;49.600;6.138;2023-08-21T13:45:10;30.10;75.50
37646;DHT22;23489;49.600;6.138;2023-08-21T13:47:44;30.00;75.80
37646;DHT22;23489;49.600;6.138;2023-08-21T13:50:13;30.10;76.30
37646;DHT22;23489;49.600;6.138;2023-08-21T13:52:40;30.10;76.70
37646;DHT22;23489;49.600;6.138;2023-08-21T13:55:06;30.10;76.60
37646;DHT22;23489;49.600;6.138;2023-08-21T13:57:32;29.80;75.70
37646;DHT22;23489;49.600;6.138;2023-08-21T13:59:59;29.60;77.10
37646;DHT22;23489;49.600;6.138;2023-08-21T14:02:25;29.40;77.70
37646;DHT22;23489;49.600;6.138;2023-08-21T14:04:51;29.60;78.00
37646;DHT22;23489;49.600;6.138;2023-08-21T14:07:17;29.60;77.60
37646;DHT22;23489;49.600;6.138;2023-08-21T14:09:42;29.90;76.30
37646;DHT22;23489;49.600;6.138;2023-08-21T14:12:09;29.70;75.00
37646;DHT22;23489;49.600;6.138;2023-08-21T14:14:35;30.00;75.60
37646;DHT22;23489;49.600;6.138;2023-08-21T14:17:01;29.80;74.90
37646;DHT22;23489;49.600;6.138;2023-08-21T14:19:29;29.50;74.60
37646;DHT22;23489;49.600;6.138;2023-08-21T14:21:57;29.60;75.70
37646;DHT22;23489;49.600;6.138;2023-08-21T14:24:22;29.50;76.50
37646;DHT22;23489;49.600;6.138;2023-08-21T14:26:48;29.30;76.80
37646;DHT22;23489;49.600;6.138;2023-08-21T14:29:13;29.40;76.40
37646;DHT22;23489;49.600;6.138;2023-08-21T14:31:39;29.50;76.70
37646;DHT22;23489;49.600;6.138;2023-08-21T14:34:05;29.50;77.40
37646;DHT22;23489;49.600;6.138;2023-08-21T14:36:30;29.60;77.60
37646;DHT22;23489;49.600;6.138;2023-08-21T14:38:56;29.70;77.80
37646;DHT22;23489;49.600;6.138;2023-08-21T14:41:21;29.80;78.50
37646;DHT22;23489;49.600;6.138;2023-08-21T14:43:47;29.80;79.20
37646;DHT22;23489;49.600;6.138;2023-08-21T14:46:13;29.90;79.80
37646;DHT22;23489;49.600;6.138;2023-08-21T14:48:38;29.50;79.50
37646;DHT22;23489;49.600;6.138;2023-08-21T14:51:04;29.30;80.30
37646;DHT22;23489;49.600;6.138;2023-08-21T14:53:30;29.30;79.90
37646;DHT22;23489;49.600;6.138;2023-08-21T14:55:55;29.30;78.80
37646;DHT22;23489;49.600;6.138;2023-08-21T14:58:22;29.40;79.40
37646;DHT22;23489;49.600;6.138;2023-08-21T15:00:48;29.30;79.70
37646;DHT22;23489;49.600;6.138;2023-08-21T15:03:14;29.30;79.00
37646;DHT22;23489;49.600;6.138;2023-08-21T15:05:40;29.20;80.50
37646;DHT22;23489;49.600;6.138;2023-08-21T15:08:05;29.00;81.90
37646;DHT22;23489;49.600;6.138;2023-08-21T15:10:31;29.10;82.80
37646;DHT22;23489;49.600;6.138;2023-08-21T15:12:56;29.30;82.10
37646;DHT22;23489;49.600;6.138;2023-08-21T15:15:22;29.10;80.30
37646;DHT22;23489;49.600;6.138;2023-08-21T15:17:48;29.00;81.50
37646;DHT22;23489;49.600;6.138;2023-08-21T15:20:13;28.90;81.40
37646;DHT22;23489;49.600;6.138;2023-08-21T15:22:41;28.90;81.30
37646;DHT22;23489;49.600;6.138;2023-08-21T15:25:08;28.90;79.80
37646;DHT22;23489;49.600;6.138;2023-08-21T15:27:35;28.70;80.80
37646;DHT22;23489;49.600;6.138;2023-08-21T15:30:01;28.90;81.80